Kent City, Michigan
Current Conditions -  °F | °C
As of 11:50 PM on Saturday 20 Dec 2014 (Local Time) from KFFX Reporting Station
Haze Haze  
Wind Chill: 29°   Ceiling: 1200
Heat Index: 29°   Visibility: 4mi
Dew Point: 28°   Wind: 0mph
Humidity: 94%   Direction: NA
Pressure: 30.24"   Gusts: NA
Location:  43.22°N, 85.75°W
Report Text: KFFX 210450Z AUTO 00000KT 4SM BR OVC012 M01/M02 A3024 RMK AO2 T10151023
Loading
Personal Weather Stations






























Interactive Weather Map New forecast layout! Learn more

10-Day Weather Forecast

Advertisements
Track Severe Weather on mobile